sensor_id;sensor_type;location;lat;lon;timestamp;P1;durP1;ratioP1;P2;durP2;ratioP2
23670;SDS011;12012;51.998;7.614;2023-04-24T00:02:14;2.85;;;2.08;;
23670;SDS011;12012;51.998;7.614;2023-04-24T00:04:39;2.33;;;1.83;;
23670;SDS011;12012;51.998;7.614;2023-04-24T00:07:06;5.68;;;2.22;;
23670;SDS011;12012;51.998;7.614;2023-04-24T00:09:32;3.42;;;2.10;;
23670;SDS011;12012;51.998;7.614;2023-04-24T00:11:58;3.22;;;1.60;;
23670;SDS011;12012;51.998;7.614;2023-04-24T00:14:24;2.85;;;1.58;;
23670;SDS011;12012;51.998;7.614;2023-04-24T00:16:50;3.30;;;1.80;;
23670;SDS011;12012;51.998;7.614;2023-04-24T00:19:15;2.25;;;1.60;;
23670;SDS011;12012;51.998;7.614;2023-04-24T00:21:41;1.58;;;1.30;;
23670;SDS011;12012;51.998;7.614;2023-04-24T00:24:07;2.10;;;1.80;;
23670;SDS011;12012;51.998;7.614;2023-04-24T00:26:34;2.83;;;1.40;;
23670;SDS011;12012;51.998;7.614;2023-04-24T00:29:00;2.35;;;1.50;;
23670;SDS011;12012;51.998;7.614;2023-04-24T00:31:25;1.88;;;1.50;;
23670;SDS011;12012;51.998;7.614;2023-04-24T00:33:51;2.75;;;1.70;;
23670;SDS011;12012;51.998;7.614;2023-04-24T00:36:17;3.70;;;1.30;;
23670;SDS011;12012;51.998;7.614;2023-04-24T00:38:44;1.70;;;1.48;;
23670;SDS011;12012;51.998;7.614;2023-04-24T00:41:10;1.98;;;1.48;;
23670;SDS011;12012;51.998;7.614;2023-04-24T00:43:36;1.90;;;1.42;;
23670;SDS011;12012;51.998;7.614;2023-04-24T00:46:02;1.50;;;1.40;;
23670;SDS011;12012;51.998;7.614;2023-04-24T00:48:27;2.08;;;1.50;;
23670;SDS011;12012;51.998;7.614;2023-04-24T00:50:53;2.67;;;1.70;;
23670;SDS011;12012;51.998;7.614;2023-04-24T00:53:19;1.85;;;1.35;;
23670;SDS011;12012;51.998;7.614;2023-04-24T00:55:45;3.42;;;1.42;;
23670;SDS011;12012;51.998;7.614;2023-04-24T00:58:11;2.35;;;1.40;;
23670;SDS011;12012;51.998;7.614;2023-04-24T01:00:37;2.30;;;1.42;;
23670;SDS011;12012;51.998;7.614;2023-04-24T01:03:04;1.70;;;1.33;;
23670;SDS011;12012;51.998;7.614;2023-04-24T01:05:30;3.25;;;1.30;;
23670;SDS011;12012;51.998;7.614;2023-04-24T01:07:57;1.38;;;1.23;;
23670;SDS011;12012;51.998;7.614;2023-04-24T01:10:24;1.75;;;1.40;;
23670;SDS011;12012;51.998;7.614;2023-04-24T01:12:52;1.55;;;1.33;;
23670;SDS011;12012;51.998;7.614;2023-04-24T01:15:18;3.25;;;1.48;;
23670;SDS011;12012;51.998;7.614;2023-04-24T01:17:44;3.92;;;1.80;;
23670;SDS011;12012;51.998;7.614;2023-04-24T01:20:10;2.40;;;1.30;;
23670;SDS011;12012;51.998;7.614;2023-04-24T01:22:35;1.75;;;1.40;;
23670;SDS011;12012;51.998;7.614;2023-04-24T01:25:01;2.25;;;1.40;;
23670;SDS011;12012;51.998;7.614;2023-04-24T01:27:28;1.48;;;1.35;;
23670;SDS011;12012;51.998;7.614;2023-04-24T01:29:54;2.75;;;1.52;;
23670;SDS011;12012;51.998;7.614;2023-04-24T01:32:20;2.13;;;1.50;;
23670;SDS011;12012;51.998;7.614;2023-04-24T01:34:46;2.88;;;1.60;;
23670;SDS011;12012;51.998;7.614;2023-04-24T01:37:12;3.47;;;1.80;;
23670;SDS011;12012;51.998;7.614;2023-04-24T01:39:38;2.40;;;1.65;;
23670;SDS011;12012;51.998;7.614;2023-04-24T01:42:04;2.53;;;1.70;;
23670;SDS011;12012;51.998;7.614;2023-04-24T01:44:30;1.90;;;1.67;;
23670;SDS011;12012;51.998;7.614;2023-04-24T01:46:56;1.85;;;1.60;;
23670;SDS011;12012;51.998;7.614;2023-04-24T01:49:23;1.75;;;1.58;;
23670;SDS011;12012;51.998;7.614;2023-04-24T01:51:49;2.80;;;1.83;;
23670;SDS011;12012;51.998;7.614;2023-04-24T01:54:14;2.05;;;1.45;;
23670;SDS011;12012;51.998;7.614;2023-04-24T01:56:43;2.80;;;2.00;;
23670;SDS011;12012;51.998;7.614;2023-04-24T01:59:10;4.72;;;2.08;;
23670;SDS011;12012;51.998;7.614;2023-04-24T02:01:36;2.55;;;1.60;;
23670;SDS011;12012;51.998;7.614;2023-04-24T02:04:03;3.05;;;1.80;;
23670;SDS011;12012;51.998;7.614;2023-04-24T02:06:29;2.00;;;1.80;;
23670;SDS011;12012;51.998;7.614;2023-04-24T02:08:57;2.80;;;2.10;;
23670;SDS011;12012;51.998;7.614;2023-04-24T02:11:23;2.58;;;2.10;;
23670;SDS011;12012;51.998;7.614;2023-04-24T02:13:49;2.67;;;2.03;;
23670;SDS011;12012;51.998;7.614;2023-04-24T02:16:16;2.13;;;1.98;;
23670;SDS011;12012;51.998;7.614;2023-04-24T02:18:42;4.05;;;2.42;;
23670;SDS011;12012;51.998;7.614;2023-04-24T02:21:08;5.70;;;2.85;;
23670;SDS011;12012;51.998;7.614;2023-04-24T02:23:33;2.67;;;2.35;;
23670;SDS011;12012;51.998;7.614;2023-04-24T02:25:59;2.70;;;2.50;;
23670;SDS011;12012;51.998;7.614;2023-04-24T02:28:24;2.80;;;2.58;;
23670;SDS011;12012;51.998;7.614;2023-04-24T02:30:50;3.75;;;2.85;;
23670;SDS011;12012;51.998;7.614;2023-04-24T02:33:16;4.97;;;3.03;;
23670;SDS011;12012;51.998;7.614;2023-04-24T02:35:41;4.78;;;3.13;;
23670;SDS011;12012;51.998;7.614;2023-04-24T02:38:07;3.50;;;3.20;;
23670;SDS011;12012;51.998;7.614;2023-04-24T02:40:32;4.45;;;3.15;;
23670;SDS011;12012;51.998;7.614;2023-04-24T02:42:58;5.32;;;3.35;;
23670;SDS011;12012;51.998;7.614;2023-04-24T02:45:24;7.07;;;3.30;;
23670;SDS011;12012;51.998;7.614;2023-04-24T02:47:49;5.93;;;3.15;;
23670;SDS011;12012;51.998;7.614;2023-04-24T02:50:15;4.78;;;3.80;;
23670;SDS011;12012;51.998;7.614;2023-04-24T02:52:40;6.00;;;3.63;;
23670;SDS011;12012;51.998;7.614;2023-04-24T02:55:06;3.55;;;3.25;;
23670;SDS011;12012;51.998;7.614;2023-04-24T02:57:33;6.63;;;3.78;;
23670;SDS011;12012;51.998;7.614;2023-04-24T02:59:58;6.95;;;4.20;;
23670;SDS011;12012;51.998;7.614;2023-04-24T03:02:24;6.40;;;4.85;;
23670;SDS011;12012;51.998;7.614;2023-04-24T03:04:50;6.25;;;5.18;;
23670;SDS011;12012;51.998;7.614;2023-04-24T03:07:15;6.78;;;5.90;;
23670;SDS011;12012;51.998;7.614;2023-04-24T03:09:41;7.20;;;5.95;;
23670;SDS011;12012;51.998;7.614;2023-04-24T03:12:07;6.18;;;5.57;;
23670;SDS011;12012;51.998;7.614;2023-04-24T03:14:32;6.88;;;5.78;;
23670;SDS011;12012;51.998;7.614;2023-04-24T03:16:58;6.93;;;6.22;;
23670;SDS011;12012;51.998;7.614;2023-04-24T03:19:24;9.07;;;7.63;;
23670;SDS011;12012;51.998;7.614;2023-04-24T03:21:49;10.93;;;7.80;;
23670;SDS011;12012;51.998;7.614;2023-04-24T03:24:15;9.20;;;8.13;;
23670;SDS011;12012;51.998;7.614;2023-04-24T03:26:41;12.32;;;8.75;;
23670;SDS011;12012;51.998;7.614;2023-04-24T03:29:06;12.82;;;9.45;;
23670;SDS011;12012;51.998;7.614;2023-04-24T03:31:32;12.65;;;9.45;;
23670;SDS011;12012;51.998;7.614;2023-04-24T03:33:57;16.48;;;11.35;;
23670;SDS011;12012;51.998;7.614;2023-04-24T03:36:23;15.93;;;9.85;;
23670;SDS011;12012;51.998;7.614;2023-04-24T03:38:48;16.75;;;10.93;;
23670;SDS011;12012;51.998;7.614;2023-04-24T03:41:14;12.55;;;10.35;;
23670;SDS011;12012;51.998;7.614;2023-04-24T03:43:40;13.63;;;10.80;;
23670;SDS011;12012;51.998;7.614;2023-04-24T03:46:05;15.73;;;11.98;;
23670;SDS011;12012;51.998;7.614;2023-04-24T03:48:31;15.70;;;12.52;;
23670;SDS011;12012;51.998;7.614;2023-04-24T03:50:57;16.00;;;12.70;;
23670;SDS011;12012;51.998;7.614;2023-04-24T03:53:23;18.50;;;14.55;;
23670;SDS011;12012;51.998;7.614;2023-04-24T03:55:48;19.73;;;15.18;;
23670;SDS011;12012;51.998;7.614;2023-04-24T03:58:14;17.10;;;14.95;;
23670;SDS011;12012;51.998;7.614;2023-04-24T04:00:39;16.25;;;14.15;;
23670;SDS011;12012;51.998;7.614;2023-04-24T04:03:05;17.30;;;14.43;;
23670;SDS011;12012;51.998;7.614;2023-04-24T04:05:31;18.13;;;14.52;;
23670;SDS011;12012;51.998;7.614;2023-04-24T04:07:57;17.35;;;13.95;;
23670;SDS011;12012;51.998;7.614;2023-04-24T04:10:22;17.20;;;13.25;;
23670;SDS011;12012;51.998;7.614;2023-04-24T04:12:48;20.23;;;16.30;;
23670;SDS011;12012;51.998;7.614;2023-04-24T04:15:13;21.00;;;15.35;;
23670;SDS011;12012;51.998;7.614;2023-04-24T04:17:39;18.92;;;14.93;;
23670;SDS011;12012;51.998;7.614;2023-04-24T04:20:05;20.67;;;15.60;;
23670;SDS011;12012;51.998;7.614;2023-04-24T04:22:35;19.67;;;15.68;;
23670;SDS011;12012;51.998;7.614;2023-04-24T04:25:01;22.02;;;15.80;;
23670;SDS011;12012;51.998;7.614;2023-04-24T04:27:27;19.48;;;14.38;;
23670;SDS011;12012;51.998;7.614;2023-04-24T04:29:54;21.45;;;16.13;;
23670;SDS011;12012;51.998;7.614;2023-04-24T04:32:21;26.40;;;16.92;;
23670;SDS011;12012;51.998;7.614;2023-04-24T04:34:47;23.65;;;16.80;;
23670;SDS011;12012;51.998;7.614;2023-04-24T04:37:14;27.52;;;16.05;;
23670;SDS011;12012;51.998;7.614;2023-04-24T04:39:39;24.27;;;16.25;;
23670;SDS011;12012;51.998;7.614;2023-04-24T04:42:05;21.38;;;16.17;;
23670;SDS011;12012;51.998;7.614;2023-04-24T04:44:31;24.10;;;17.42;;
23670;SDS011;12012;51.998;7.614;2023-04-24T04:46:57;27.77;;;17.52;;
23670;SDS011;12012;51.998;7.614;2023-04-24T04:49:25;25.58;;;18.58;;
23670;SDS011;12012;51.998;7.614;2023-04-24T04:51:53;26.05;;;19.33;;
23670;SDS011;12012;51.998;7.614;2023-04-24T04:54:18;28.98;;;20.17;;
23670;SDS011;12012;51.998;7.614;2023-04-24T04:56:44;25.58;;;18.42;;
23670;SDS011;12012;51.998;7.614;2023-04-24T04:59:10;31.10;;;21.45;;
23670;SDS011;12012;51.998;7.614;2023-04-24T05:01:36;30.50;;;21.77;;
23670;SDS011;12012;51.998;7.614;2023-04-24T05:04:01;31.52;;;23.40;;
23670;SDS011;12012;51.998;7.614;2023-04-24T05:06:27;32.72;;;22.83;;
23670;SDS011;12012;51.998;7.614;2023-04-24T05:08:52;33.83;;;22.40;;
23670;SDS011;12012;51.998;7.614;2023-04-24T05:11:22;34.35;;;22.95;;
23670;SDS011;12012;51.998;7.614;2023-04-24T05:13:48;31.55;;;23.13;;
23670;SDS011;12012;51.998;7.614;2023-04-24T05:16:13;36.88;;;24.13;;
23670;SDS011;12012;51.998;7.614;2023-04-24T05:18:39;33.20;;;23.10;;
23670;SDS011;12012;51.998;7.614;2023-04-24T05:21:05;36.30;;;25.20;;
23670;SDS011;12012;51.998;7.614;2023-04-24T05:23:31;33.15;;;25.08;;
23670;SDS011;12012;51.998;7.614;2023-04-24T05:25:56;37.13;;;23.75;;
23670;SDS011;12012;51.998;7.614;2023-04-24T05:28:22;34.50;;;25.13;;
23670;SDS011;12012;51.998;7.614;2023-04-24T05:30:47;32.83;;;24.48;;
23670;SDS011;12012;51.998;7.614;2023-04-24T05:33:13;35.42;;;25.65;;
23670;SDS011;12012;51.998;7.614;2023-04-24T05:35:40;32.78;;;24.15;;
23670;SDS011;12012;51.998;7.614;2023-04-24T05:38:10;36.70;;;26.10;;
23670;SDS011;12012;51.998;7.614;2023-04-24T05:40:36;31.65;;;23.08;;
23670;SDS011;12012;51.998;7.614;2023-04-24T05:43:02;35.47;;;24.38;;
23670;SDS011;12012;51.998;7.614;2023-04-24T05:45:27;38.47;;;25.02;;
23670;SDS011;12012;51.998;7.614;2023-04-24T05:47:53;32.95;;;22.42;;
23670;SDS011;12012;51.998;7.614;2023-04-24T05:50:18;29.38;;;21.73;;
23670;SDS011;12012;51.998;7.614;2023-04-24T05:52:44;33.22;;;23.48;;
23670;SDS011;12012;51.998;7.614;2023-04-24T05:55:10;29.67;;;21.90;;
23670;SDS011;12012;51.998;7.614;2023-04-24T05:57:36;30.40;;;21.77;;
23670;SDS011;12012;51.998;7.614;2023-04-24T06:00:01;30.40;;;22.60;;
23670;SDS011;12012;51.998;7.614;2023-04-24T06:02:29;29.35;;;21.38;;
23670;SDS011;12012;51.998;7.614;2023-04-24T06:04:57;30.45;;;21.40;;
23670;SDS011;12012;51.998;7.614;2023-04-24T06:07:26;34.45;;;21.83;;
23670;SDS011;12012;51.998;7.614;2023-04-24T06:09:52;35.42;;;21.63;;
23670;SDS011;12012;51.998;7.614;2023-04-24T06:12:17;28.05;;;20.70;;
23670;SDS011;12012;51.998;7.614;2023-04-24T06:14:43;30.73;;;20.38;;
23670;SDS011;12012;51.998;7.614;2023-04-24T06:17:08;24.85;;;19.52;;
23670;SDS011;12012;51.998;7.614;2023-04-24T06:19:34;29.10;;;19.25;;
23670;SDS011;12012;51.998;7.614;2023-04-24T06:22:00;26.63;;;20.15;;
23670;SDS011;12012;51.998;7.614;2023-04-24T06:24:28;23.58;;;18.48;;
23670;SDS011;12012;51.998;7.614;2023-04-24T06:26:54;26.10;;;19.73;;
23670;SDS011;12012;51.998;7.614;2023-04-24T06:29:21;25.70;;;19.60;;
23670;SDS011;12012;51.998;7.614;2023-04-24T06:31:47;27.45;;;19.05;;
23670;SDS011;12012;51.998;7.614;2023-04-24T06:34:12;27.98;;;19.45;;
23670;SDS011;12012;51.998;7.614;2023-04-24T06:36:38;23.55;;;18.55;;
23670;SDS011;12012;51.998;7.614;2023-04-24T06:39:04;29.80;;;19.13;;
23670;SDS011;12012;51.998;7.614;2023-04-24T06:41:29;24.58;;;18.42;;
23670;SDS011;12012;51.998;7.614;2023-04-24T06:43:55;28.02;;;19.15;;
23670;SDS011;12012;51.998;7.614;2023-04-24T06:46:21;25.80;;;19.85;;
23670;SDS011;12012;51.998;7.614;2023-04-24T06:48:51;25.92;;;19.20;;
23670;SDS011;12012;51.998;7.614;2023-04-24T06:51:20;26.25;;;17.88;;
23670;SDS011;12012;51.998;7.614;2023-04-24T06:53:49;21.73;;;18.30;;
23670;SDS011;12012;51.998;7.614;2023-04-24T06:56:16;23.05;;;19.08;;
23670;SDS011;12012;51.998;7.614;2023-04-24T06:58:41;23.60;;;18.02;;
23670;SDS011;12012;51.998;7.614;2023-04-24T07:01:07;21.75;;;17.00;;
23670;SDS011;12012;51.998;7.614;2023-04-24T07:03:32;19.80;;;16.45;;
23670;SDS011;12012;51.998;7.614;2023-04-24T07:05:58;20.33;;;16.70;;
23670;SDS011;12012;51.998;7.614;2023-04-24T07:08:24;20.08;;;17.17;;
23670;SDS011;12012;51.998;7.614;2023-04-24T07:10:50;17.48;;;15.57;;
23670;SDS011;12012;51.998;7.614;2023-04-24T07:13:16;18.02;;;16.13;;
23670;SDS011;12012;51.998;7.614;2023-04-24T07:15:42;21.77;;;17.05;;
23670;SDS011;12012;51.998;7.614;2023-04-24T07:18:08;16.73;;;15.02;;
23670;SDS011;12012;51.998;7.614;2023-04-24T07:20:33;18.15;;;15.48;;
23670;SDS011;12012;51.998;7.614;2023-04-24T07:22:59;17.60;;;15.63;;
23670;SDS011;12012;51.998;7.614;2023-04-24T07:25:25;18.40;;;15.95;;
23670;SDS011;12012;51.998;7.614;2023-04-24T07:27:50;18.00;;;16.05;;
23670;SDS011;12012;51.998;7.614;2023-04-24T07:30:17;17.35;;;15.38;;
23670;SDS011;12012;51.998;7.614;2023-04-24T07:32:42;18.95;;;15.23;;
23670;SDS011;12012;51.998;7.614;2023-04-24T07:35:08;19.05;;;14.95;;
23670;SDS011;12012;51.998;7.614;2023-04-24T07:37:34;16.70;;;14.82;;
23670;SDS011;12012;51.998;7.614;2023-04-24T07:40:00;16.65;;;14.13;;
23670;SDS011;12012;51.998;7.614;2023-04-24T07:42:26;16.42;;;14.27;;
23670;SDS011;12012;51.998;7.614;2023-04-24T07:44:52;16.17;;;14.00;;
23670;SDS011;12012;51.998;7.614;2023-04-24T07:47:18;15.70;;;13.25;;
23670;SDS011;12012;51.998;7.614;2023-04-24T07:49:43;17.58;;;14.15;;
23670;SDS011;12012;51.998;7.614;2023-04-24T07:52:09;15.88;;;13.32;;
23670;SDS011;12012;51.998;7.614;2023-04-24T07:54:35;15.65;;;14.00;;
23670;SDS011;12012;51.998;7.614;2023-04-24T07:57:02;15.85;;;13.18;;
23670;SDS011;12012;51.998;7.614;2023-04-24T07:59:28;16.33;;;13.80;;
23670;SDS011;12012;51.998;7.614;2023-04-24T08:01:53;16.08;;;12.75;;
23670;SDS011;12012;51.998;7.614;2023-04-24T08:04:19;15.23;;;12.80;;
23670;SDS011;12012;51.998;7.614;2023-04-24T08:06:46;14.57;;;10.85;;
23670;SDS011;12012;51.998;7.614;2023-04-24T08:09:12;12.25;;;10.25;;
23670;SDS011;12012;51.998;7.614;2023-04-24T08:11:38;13.55;;;11.70;;
23670;SDS011;12012;51.998;7.614;2023-04-24T08:14:03;12.15;;;10.90;;
23670;SDS011;12012;51.998;7.614;2023-04-24T08:16:29;11.13;;;9.68;;
23670;SDS011;12012;51.998;7.614;2023-04-24T08:18:54;12.40;;;9.63;;
23670;SDS011;12012;51.998;7.614;2023-04-24T08:21:20;10.70;;;9.43;;
23670;SDS011;12012;51.998;7.614;2023-04-24T08:23:46;10.95;;;9.48;;
23670;SDS011;12012;51.998;7.614;2023-04-24T08:26:12;10.85;;;9.27;;
23670;SDS011;12012;51.998;7.614;2023-04-24T08:28:38;15.73;;;10.13;;
23670;SDS011;12012;51.998;7.614;2023-04-24T08:31:04;10.68;;;9.57;;
23670;SDS011;12012;51.998;7.614;2023-04-24T08:33:30;12.00;;;10.07;;
23670;SDS011;12012;51.998;7.614;2023-04-24T08:35:59;13.57;;;10.13;;
23670;SDS011;12012;51.998;7.614;2023-04-24T08:38:29;11.82;;;9.98;;
23670;SDS011;12012;51.998;7.614;2023-04-24T08:40:56;10.57;;;9.48;;
23670;SDS011;12012;51.998;7.614;2023-04-24T08:43:23;10.02;;;9.00;;
23670;SDS011;12012;51.998;7.614;2023-04-24T08:45:49;10.70;;;9.60;;
23670;SDS011;12012;51.998;7.614;2023-04-24T08:48:16;13.60;;;9.65;;
23670;SDS011;12012;51.998;7.614;2023-04-24T08:50:42;10.27;;;9.18;;
23670;SDS011;12012;51.998;7.614;2023-04-24T08:53:09;10.80;;;9.75;;
23670;SDS011;12012;51.998;7.614;2023-04-24T08:55:35;9.20;;;8.30;;
23670;SDS011;12012;51.998;7.614;2023-04-24T08:58:02;9.63;;;8.73;;
23670;SDS011;12012;51.998;7.614;2023-04-24T09:00:29;9.65;;;8.60;;
23670;SDS011;12012;51.998;7.614;2023-04-24T09:02:55;9.10;;;8.02;;
23670;SDS011;12012;51.998;7.614;2023-04-24T09:05:21;8.30;;;7.45;;
23670;SDS011;12012;51.998;7.614;2023-04-24T09:07:55;9.25;;;8.35;;
23670;SDS011;12012;51.998;7.614;2023-04-24T09:10:22;9.15;;;8.25;;
23670;SDS011;12012;51.998;7.614;2023-04-24T09:12:50;8.55;;;7.75;;
23670;SDS011;12012;51.998;7.614;2023-04-24T09:15:16;7.88;;;6.95;;
23670;SDS011;12012;51.998;7.614;2023-04-24T09:17:43;10.32;;;8.13;;
23670;SDS011;12012;51.998;7.614;2023-04-24T09:20:09;9.02;;;8.13;;
23670;SDS011;12012;51.998;7.614;2023-04-24T09:22:35;8.70;;;7.90;;
23670;SDS011;12012;51.998;7.614;2023-04-24T09:25:05;9.80;;;8.90;;
23670;SDS011;12012;51.998;7.614;2023-04-24T09:27:35;9.73;;;8.70;;
23670;SDS011;12012;51.998;7.614;2023-04-24T09:30:00;9.90;;;8.68;;
23670;SDS011;12012;51.998;7.614;2023-04-24T09:32:27;8.85;;;7.95;;
23670;SDS011;12012;51.998;7.614;2023-04-24T09:40:22;10.50;;;8.02;;
23670;SDS011;12012;51.998;7.614;2023-04-24T09:42:55;9.27;;;7.47;;
23670;SDS011;12012;51.998;7.614;2023-04-24T09:45:28;8.52;;;7.50;;
23670;SDS011;12012;51.998;7.614;2023-04-24T09:47:59;9.43;;;7.53;;
23670;SDS011;12012;51.998;7.614;2023-04-24T09:50:25;11.85;;;7.80;;
23670;SDS011;12012;51.998;7.614;2023-04-24T09:53:01;10.23;;;7.90;;
23670;SDS011;12012;51.998;7.614;2023-04-24T09:55:28;8.23;;;6.40;;
23670;SDS011;12012;51.998;7.614;2023-04-24T09:57:58;7.45;;;6.50;;
23670;SDS011;12012;51.998;7.614;2023-04-24T10:00:31;7.78;;;6.97;;
23670;SDS011;12012;51.998;7.614;2023-04-24T10:02:58;12.32;;;9.52;;
23670;SDS011;12012;51.998;7.614;2023-04-24T10:05:30;19.63;;;13.77;;
23670;SDS011;12012;51.998;7.614;2023-04-24T10:10:28;8.27;;;7.22;;
23670;SDS011;12012;51.998;7.614;2023-04-24T10:12:55;8.18;;;7.35;;
23670;SDS011;12012;51.998;7.614;2023-04-24T10:15:21;8.82;;;7.65;;
23670;SDS011;12012;51.998;7.614;2023-04-24T10:17:48;9.48;;;7.55;;
23670;SDS011;12012;51.998;7.614;2023-04-24T10:20:24;9.27;;;7.10;;
23670;SDS011;12012;51.998;7.614;2023-04-24T10:22:52;10.60;;;8.13;;
23670;SDS011;12012;51.998;7.614;2023-04-24T10:25:19;11.38;;;8.35;;
23670;SDS011;12012;51.998;7.614;2023-04-24T10:27:46;11.85;;;9.05;;
23670;SDS011;12012;51.998;7.614;2023-04-24T10:30:13;9.85;;;7.78;;
23670;SDS011;12012;51.998;7.614;2023-04-24T10:32:39;10.50;;;7.20;;
23670;SDS011;12012;51.998;7.614;2023-04-24T10:35:08;7.75;;;6.45;;
23670;SDS011;12012;51.998;7.614;2023-04-24T10:37:36;9.93;;;6.18;;
23670;SDS011;12012;51.998;7.614;2023-04-24T10:40:04;8.55;;;6.38;;
23670;SDS011;12012;51.998;7.614;2023-04-24T10:42:32;12.38;;;7.20;;
23670;SDS011;12012;51.998;7.614;2023-04-24T10:44:58;10.93;;;7.72;;
23670;SDS011;12012;51.998;7.614;2023-04-24T10:47:26;14.35;;;9.63;;
23670;SDS011;12012;51.998;7.614;2023-04-24T10:49:52;13.80;;;8.27;;
23670;SDS011;12012;51.998;7.614;2023-04-24T10:52:18;13.60;;;8.85;;
23670;SDS011;12012;51.998;7.614;2023-04-24T10:54:44;14.35;;;8.77;;
23670;SDS011;12012;51.998;7.614;2023-04-24T10:59:47;10.93;;;7.07;;
23670;SDS011;12012;51.998;7.614;2023-04-24T11:02:14;13.40;;;7.55;;
23670;SDS011;12012;51.998;7.614;2023-04-24T11:04:40;11.95;;;7.22;;
23670;SDS011;12012;51.998;7.614;2023-04-24T11:07:08;11.85;;;7.28;;
23670;SDS011;12012;51.998;7.614;2023-04-24T11:09:35;11.80;;;7.70;;
23670;SDS011;12012;51.998;7.614;2023-04-24T11:12:05;11.70;;;8.90;;
23670;SDS011;12012;51.998;7.614;2023-04-24T11:17:33;15.77;;;9.30;;
23670;SDS011;12012;51.998;7.614;2023-04-24T11:20:06;12.07;;;8.57;;
23670;SDS011;12012;51.998;7.614;2023-04-24T11:22:34;12.02;;;8.15;;
23670;SDS011;12012;51.998;7.614;2023-04-24T11:25:01;14.65;;;8.85;;
23670;SDS011;12012;51.998;7.614;2023-04-24T11:27:32;14.55;;;9.43;;
23670;SDS011;12012;51.998;7.614;2023-04-24T11:30:04;14.60;;;9.38;;
23670;SDS011;12012;51.998;7.614;2023-04-24T11:35:06;14.57;;;9.07;;
23670;SDS011;12012;51.998;7.614;2023-04-24T11:37:37;11.35;;;8.27;;
23670;SDS011;12012;51.998;7.614;2023-04-24T11:40:05;12.43;;;8.57;;
23670;SDS011;12012;51.998;7.614;2023-04-24T11:47:37;11.20;;;7.00;;
23670;SDS011;12012;51.998;7.614;2023-04-24T11:50:05;9.82;;;6.20;;
23670;SDS011;12012;51.998;7.614;2023-04-24T11:52:33;6.63;;;5.43;;
23670;SDS011;12012;51.998;7.614;2023-04-24T11:55:03;9.68;;;6.07;;
23670;SDS011;12012;51.998;7.614;2023-04-24T11:57:29;10.57;;;5.53;;
23670;SDS011;12012;51.998;7.614;2023-04-24T11:59:59;7.43;;;4.88;;
23670;SDS011;12012;51.998;7.614;2023-04-24T12:02:26;7.07;;;5.40;;
23670;SDS011;12012;51.998;7.614;2023-04-24T12:04:55;10.82;;;5.38;;
23670;SDS011;12012;51.998;7.614;2023-04-24T12:07:21;12.43;;;5.57;;
23670;SDS011;12012;51.998;7.614;2023-04-24T12:09:55;15.00;;;7.13;;
23670;SDS011;12012;51.998;7.614;2023-04-24T12:12:24;15.68;;;6.00;;
23670;SDS011;12012;51.998;7.614;2023-04-24T12:14:53;14.15;;;5.97;;
23670;SDS011;12012;51.998;7.614;2023-04-24T12:17:25;13.70;;;6.10;;
23670;SDS011;12012;51.998;7.614;2023-04-24T12:19:56;12.35;;;6.22;;
23670;SDS011;12012;51.998;7.614;2023-04-24T12:22:26;13.13;;;6.78;;
23670;SDS011;12012;51.998;7.614;2023-04-24T12:24:58;19.38;;;7.78;;
23670;SDS011;12012;51.998;7.614;2023-04-24T12:27:31;24.05;;;8.20;;
23670;SDS011;12012;51.998;7.614;2023-04-24T12:30:01;12.30;;;7.90;;
23670;SDS011;12012;51.998;7.614;2023-04-24T12:32:29;20.60;;;8.10;;
23670;SDS011;12012;51.998;7.614;2023-04-24T12:34:55;22.98;;;8.38;;
23670;SDS011;12012;51.998;7.614;2023-04-24T12:37:24;18.70;;;8.00;;
23670;SDS011;12012;51.998;7.614;2023-04-24T12:42:33;17.42;;;6.97;;
23670;SDS011;12012;51.998;7.614;2023-04-24T12:45:01;14.07;;;7.00;;
23670;SDS011;12012;51.998;7.614;2023-04-24T12:47:31;12.52;;;6.60;;
23670;SDS011;12012;51.998;7.614;2023-04-24T12:49:58;14.25;;;7.13;;
23670;SDS011;12012;51.998;7.614;2023-04-24T12:52:27;14.27;;;7.18;;
23670;SDS011;12012;51.998;7.614;2023-04-24T12:54:58;13.57;;;7.55;;
23670;SDS011;12012;51.998;7.614;2023-04-24T12:57:25;15.57;;;7.95;;
23670;SDS011;12012;51.998;7.614;2023-04-24T12:59:55;19.60;;;8.05;;
23670;SDS011;12012;51.998;7.614;2023-04-24T13:02:25;20.85;;;8.10;;
23670;SDS011;12012;51.998;7.614;2023-04-24T13:04:52;14.30;;;6.68;;
23670;SDS011;12012;51.998;7.614;2023-04-24T13:07:18;19.27;;;7.60;;
23670;SDS011;12012;51.998;7.614;2023-04-24T13:09:44;13.18;;;6.40;;
23670;SDS011;12012;51.998;7.614;2023-04-24T13:12:11;9.98;;;5.78;;
23670;SDS011;12012;51.998;7.614;2023-04-24T13:14:37;15.50;;;6.03;;
23670;SDS011;12012;51.998;7.614;2023-04-24T13:17:03;13.43;;;4.97;;
23670;SDS011;12012;51.998;7.614;2023-04-24T13:19:29;12.23;;;5.05;;
23670;SDS011;12012;51.998;7.614;2023-04-24T13:22:00;15.60;;;5.23;;
23670;SDS011;12012;51.998;7.614;2023-04-24T13:24:25;10.07;;;4.90;;
23670;SDS011;12012;51.998;7.614;2023-04-24T13:26:52;15.73;;;4.63;;
23670;SDS011;12012;51.998;7.614;2023-04-24T13:29:18;13.05;;;4.80;;
23670;SDS011;12012;51.998;7.614;2023-04-24T13:31:44;10.05;;;4.88;;
23670;SDS011;12012;51.998;7.614;2023-04-24T13:34:09;11.60;;;5.30;;
23670;SDS011;12012;51.998;7.614;2023-04-24T13:36:35;10.88;;;4.50;;
23670;SDS011;12012;51.998;7.614;2023-04-24T13:39:02;11.57;;;4.82;;
23670;SDS011;12012;51.998;7.614;2023-04-24T13:41:29;10.27;;;5.00;;
23670;SDS011;12012;51.998;7.614;2023-04-24T13:43:55;13.75;;;5.88;;
23670;SDS011;12012;51.998;7.614;2023-04-24T13:46:22;10.38;;;4.50;;
23670;SDS011;12012;51.998;7.614;2023-04-24T13:48:47;9.85;;;4.45;;
23670;SDS011;12012;51.998;7.614;2023-04-24T13:51:13;9.32;;;3.90;;
23670;SDS011;12012;51.998;7.614;2023-04-24T13:53:38;7.95;;;4.30;;
23670;SDS011;12012;51.998;7.614;2023-04-24T13:56:04;9.02;;;3.35;;
23670;SDS011;12012;51.998;7.614;2023-04-24T13:58:31;7.57;;;3.70;;
23670;SDS011;12012;51.998;7.614;2023-04-24T14:00:57;6.43;;;2.92;;
23670;SDS011;12012;51.998;7.614;2023-04-24T14:03:22;5.60;;;3.25;;
23670;SDS011;12012;51.998;7.614;2023-04-24T14:05:48;7.65;;;2.85;;
23670;SDS011;12012;51.998;7.614;2023-04-24T14:08:14;7.25;;;2.88;;
23670;SDS011;12012;51.998;7.614;2023-04-24T14:10:39;5.47;;;2.78;;
23670;SDS011;12012;51.998;7.614;2023-04-24T14:13:05;4.80;;;2.60;;
23670;SDS011;12012;51.998;7.614;2023-04-24T14:15:31;10.32;;;2.70;;
23670;SDS011;12012;51.998;7.614;2023-04-24T14:17:57;5.45;;;2.30;;
23670;SDS011;12012;51.998;7.614;2023-04-24T14:20:22;9.00;;;2.80;;
23670;SDS011;12012;51.998;7.614;2023-04-24T14:22:48;4.82;;;2.05;;
23670;SDS011;12012;51.998;7.614;2023-04-24T14:25:14;6.30;;;2.25;;
23670;SDS011;12012;51.998;7.614;2023-04-24T14:27:40;3.63;;;2.05;;
23670;SDS011;12012;51.998;7.614;2023-04-24T14:30:06;4.25;;;2.03;;
23670;SDS011;12012;51.998;7.614;2023-04-24T14:32:32;4.07;;;1.52;;
23670;SDS011;12012;51.998;7.614;2023-04-24T14:34:58;4.40;;;1.92;;
23670;SDS011;12012;51.998;7.614;2023-04-24T14:37:23;6.43;;;1.98;;
23670;SDS011;12012;51.998;7.614;2023-04-24T14:39:49;3.10;;;1.67;;
23670;SDS011;12012;51.998;7.614;2023-04-24T14:42:14;4.97;;;2.20;;
23670;SDS011;12012;51.998;7.614;2023-04-24T14:44:41;5.20;;;1.92;;
23670;SDS011;12012;51.998;7.614;2023-04-24T14:47:07;3.72;;;2.00;;
23670;SDS011;12012;51.998;7.614;2023-04-24T14:49:33;3.13;;;2.10;;
23670;SDS011;12012;51.998;7.614;2023-04-24T14:51:58;4.05;;;2.30;;
23670;SDS011;12012;51.998;7.614;2023-04-24T14:54:24;5.50;;;2.10;;
23670;SDS011;12012;51.998;7.614;2023-04-24T14:56:50;4.47;;;2.30;;